sensor_id;sensor_type;location;lat;lon;timestamp;temperature;humidity
15111;DHT22;7656;51.954;7.998;2023-10-08T00:01:21;19.10;99.90
15111;DHT22;7656;51.954;7.998;2023-10-08T00:05:43;19.00;99.90
15111;DHT22;7656;51.954;7.998;2023-10-08T00:10:04;19.00;99.90
15111;DHT22;7656;51.954;7.998;2023-10-08T00:14:26;19.00;99.90
15111;DHT22;7656;51.954;7.998;2023-10-08T00:18:48;19.00;99.90
15111;DHT22;7656;51.954;7.998;2023-10-08T00:23:10;19.00;99.90
15111;DHT22;7656;51.954;7.998;2023-10-08T00:27:31;19.00;99.90
15111;DHT22;7656;51.954;7.998;2023-10-08T00:31:59;19.00;99.90
15111;DHT22;7656;51.954;7.998;2023-10-08T00:36:23;19.10;99.90
15111;DHT22;7656;51.954;7.998;2023-10-08T00:40:44;19.00;99.90
15111;DHT22;7656;51.954;7.998;2023-10-08T00:45:07;18.90;99.90
15111;DHT22;7656;51.954;7.998;2023-10-08T00:49:30;18.90;99.90
15111;DHT22;7656;51.954;7.998;2023-10-08T00:54:03;19.00;99.90
15111;DHT22;7656;51.954;7.998;2023-10-08T00:58:28;19.00;99.90
15111;DHT22;7656;51.954;7.998;2023-10-08T01:02:49;19.10;99.90
15111;DHT22;7656;51.954;7.998;2023-10-08T01:07:16;19.00;99.90
15111;DHT22;7656;51.954;7.998;2023-10-08T01:11:37;19.10;99.90
15111;DHT22;7656;51.954;7.998;2023-10-08T01:16:09;19.10;99.90
15111;DHT22;7656;51.954;7.998;2023-10-08T01:20:32;19.10;99.90
15111;DHT22;7656;51.954;7.998;2023-10-08T01:24:59;19.20;99.90
15111;DHT22;7656;51.954;7.998;2023-10-08T01:29:23;19.20;99.90
15111;DHT22;7656;51.954;7.998;2023-10-08T01:33:45;19.20;99.90
15111;DHT22;7656;51.954;7.998;2023-10-08T01:38:17;19.20;99.90
15111;DHT22;7656;51.954;7.998;2023-10-08T01:42:50;19.20;99.90
15111;DHT22;7656;51.954;7.998;2023-10-08T01:47:17;19.00;99.90
15111;DHT22;7656;51.954;7.998;2023-10-08T01:51:46;19.10;99.90
15111;DHT22;7656;51.954;7.998;2023-10-08T01:56:08;19.10;99.90
15111;DHT22;7656;51.954;7.998;2023-10-08T02:00:32;19.00;99.90
15111;DHT22;7656;51.954;7.998;2023-10-08T02:04:55;18.90;99.90
15111;DHT22;7656;51.954;7.998;2023-10-08T02:09:17;19.00;99.90
15111;DHT22;7656;51.954;7.998;2023-10-08T02:13:48;18.80;99.90
15111;DHT22;7656;51.954;7.998;2023-10-08T02:18:12;18.50;99.90
15111;DHT22;7656;51.954;7.998;2023-10-08T02:22:35;18.20;99.90
15111;DHT22;7656;51.954;7.998;2023-10-08T02:26:57;18.00;99.90
15111;DHT22;7656;51.954;7.998;2023-10-08T02:31:21;17.90;99.90
15111;DHT22;7656;51.954;7.998;2023-10-08T02:35:47;17.80;99.90
15111;DHT22;7656;51.954;7.998;2023-10-08T02:40:11;17.80;99.90
15111;DHT22;7656;51.954;7.998;2023-10-08T02:44:54;17.60;99.90
15111;DHT22;7656;51.954;7.998;2023-10-08T02:49:22;17.30;99.90
15111;DHT22;7656;51.954;7.998;2023-10-08T02:53:44;17.10;99.90
15111;DHT22;7656;51.954;7.998;2023-10-08T02:58:11;16.80;99.90
15111;DHT22;7656;51.954;7.998;2023-10-08T03:02:43;16.70;99.90
15111;DHT22;7656;51.954;7.998;2023-10-08T03:07:04;16.70;99.90
15111;DHT22;7656;51.954;7.998;2023-10-08T03:11:35;16.50;99.90
15111;DHT22;7656;51.954;7.998;2023-10-08T03:15:59;16.40;99.90
15111;DHT22;7656;51.954;7.998;2023-10-08T03:20:28;16.40;99.90
15111;DHT22;7656;51.954;7.998;2023-10-08T03:25:00;16.50;99.90
15111;DHT22;7656;51.954;7.998;2023-10-08T03:29:37;16.40;99.90
15111;DHT22;7656;51.954;7.998;2023-10-08T03:34:06;16.40;99.90
15111;DHT22;7656;51.954;7.998;2023-10-08T03:38:29;16.30;99.90
15111;DHT22;7656;51.954;7.998;2023-10-08T03:43:05;16.30;99.90
15111;DHT22;7656;51.954;7.998;2023-10-08T03:47:40;16.10;99.90
15111;DHT22;7656;51.954;7.998;2023-10-08T03:52:08;16.10;99.90
15111;DHT22;7656;51.954;7.998;2023-10-08T03:56:34;16.00;99.90
15111;DHT22;7656;51.954;7.998;2023-10-08T04:00:57;15.90;99.90
15111;DHT22;7656;51.954;7.998;2023-10-08T04:05:36;15.70;99.90
15111;DHT22;7656;51.954;7.998;2023-10-08T04:10:22;15.70;99.90
15111;DHT22;7656;51.954;7.998;2023-10-08T04:15:06;15.50;99.90
15111;DHT22;7656;51.954;7.998;2023-10-08T04:19:33;15.40;99.90
15111;DHT22;7656;51.954;7.998;2023-10-08T04:23:56;15.40;99.90
15111;DHT22;7656;51.954;7.998;2023-10-08T04:28:22;15.30;99.90
15111;DHT22;7656;51.954;7.998;2023-10-08T04:32:50;15.30;99.90
15111;DHT22;7656;51.954;7.998;2023-10-08T04:37:16;15.00;99.90
15111;DHT22;7656;51.954;7.998;2023-10-08T04:41:41;14.90;99.90
15111;DHT22;7656;51.954;7.998;2023-10-08T04:46:17;15.00;99.90
15111;DHT22;7656;51.954;7.998;2023-10-08T04:50:45;14.70;99.90
15111;DHT22;7656;51.954;7.998;2023-10-08T04:55:12;13.90;99.90
15111;DHT22;7656;51.954;7.998;2023-10-08T04:59:39;13.70;99.90
15111;DHT22;7656;51.954;7.998;2023-10-08T05:04:06;14.00;99.90
15111;DHT22;7656;51.954;7.998;2023-10-08T05:08:44;14.10;99.90
15111;DHT22;7656;51.954;7.998;2023-10-08T05:13:19;14.20;99.90
15111;DHT22;7656;51.954;7.998;2023-10-08T05:17:51;14.30;99.90
15111;DHT22;7656;51.954;7.998;2023-10-08T05:22:17;14.20;99.90
15111;DHT22;7656;51.954;7.998;2023-10-08T05:26:39;14.00;99.90
15111;DHT22;7656;51.954;7.998;2023-10-08T05:31:08;14.00;99.90
15111;DHT22;7656;51.954;7.998;2023-10-08T05:35:52;13.90;99.90
15111;DHT22;7656;51.954;7.998;2023-10-08T05:40:34;13.60;99.90
15111;DHT22;7656;51.954;7.998;2023-10-08T05:45:15;13.70;99.90
15111;DHT22;7656;51.954;7.998;2023-10-08T05:49:53;13.80;99.90
15111;DHT22;7656;51.954;7.998;2023-10-08T05:54:33;13.70;99.90
15111;DHT22;7656;51.954;7.998;2023-10-08T05:59:08;13.70;99.90
15111;DHT22;7656;51.954;7.998;2023-10-08T06:03:39;13.70;99.90
15111;DHT22;7656;51.954;7.998;2023-10-08T06:08:21;13.80;99.90
15111;DHT22;7656;51.954;7.998;2023-10-08T06:17:35;14.00;99.90
15111;DHT22;7656;51.954;7.998;2023-10-08T06:22:16;14.00;99.90
15111;DHT22;7656;51.954;7.998;2023-10-08T06:26:39;14.10;99.90
15111;DHT22;7656;51.954;7.998;2023-10-08T06:31:04;14.10;99.90
15111;DHT22;7656;51.954;7.998;2023-10-08T06:35:38;13.90;99.90
15111;DHT22;7656;51.954;7.998;2023-10-08T06:40:05;13.80;99.90
15111;DHT22;7656;51.954;7.998;2023-10-08T06:44:47;13.90;99.90
15111;DHT22;7656;51.954;7.998;2023-10-08T06:49:09;14.00;99.90
15111;DHT22;7656;51.954;7.998;2023-10-08T06:53:34;13.90;99.90
15111;DHT22;7656;51.954;7.998;2023-10-08T06:57:55;13.70;99.90
15111;DHT22;7656;51.954;7.998;2023-10-08T07:02:16;13.60;99.90
15111;DHT22;7656;51.954;7.998;2023-10-08T07:06:42;13.70;99.90
15111;DHT22;7656;51.954;7.998;2023-10-08T07:11:03;13.70;99.90
15111;DHT22;7656;51.954;7.998;2023-10-08T07:15:32;13.60;99.90
15111;DHT22;7656;51.954;7.998;2023-10-08T07:19:53;13.80;99.90
15111;DHT22;7656;51.954;7.998;2023-10-08T07:24:15;13.50;99.90
15111;DHT22;7656;51.954;7.998;2023-10-08T07:28:38;13.50;99.90
15111;DHT22;7656;51.954;7.998;2023-10-08T07:33:02;13.60;99.90
15111;DHT22;7656;51.954;7.998;2023-10-08T07:37:24;13.70;99.90
15111;DHT22;7656;51.954;7.998;2023-10-08T07:41:47;13.80;99.90
15111;DHT22;7656;51.954;7.998;2023-10-08T07:46:09;13.90;99.90
15111;DHT22;7656;51.954;7.998;2023-10-08T07:50:30;14.20;99.90
15111;DHT22;7656;51.954;7.998;2023-10-08T07:54:51;14.10;99.90
15111;DHT22;7656;51.954;7.998;2023-10-08T07:59:15;14.00;99.90
15111;DHT22;7656;51.954;7.998;2023-10-08T08:03:37;14.10;99.90
15111;DHT22;7656;51.954;7.998;2023-10-08T08:07:58;14.10;99.90
15111;DHT22;7656;51.954;7.998;2023-10-08T08:12:27;14.00;99.90
15111;DHT22;7656;51.954;7.998;2023-10-08T08:16:49;13.70;99.90
15111;DHT22;7656;51.954;7.998;2023-10-08T08:21:11;13.60;99.90
15111;DHT22;7656;51.954;7.998;2023-10-08T08:25:41;13.90;99.90
15111;DHT22;7656;51.954;7.998;2023-10-08T08:30:21;14.00;99.90
15111;DHT22;7656;51.954;7.998;2023-10-08T08:34:47;14.10;99.90
15111;DHT22;7656;51.954;7.998;2023-10-08T08:39:11;14.50;99.90
15111;DHT22;7656;51.954;7.998;2023-10-08T08:43:48;14.60;99.90
15111;DHT22;7656;51.954;7.998;2023-10-08T08:48:18;14.80;99.90
15111;DHT22;7656;51.954;7.998;2023-10-08T08:52:40;14.80;99.90
15111;DHT22;7656;51.954;7.998;2023-10-08T08:57:03;14.70;99.90
15111;DHT22;7656;51.954;7.998;2023-10-08T09:01:25;14.40;99.90
15111;DHT22;7656;51.954;7.998;2023-10-08T09:05:46;14.30;99.90
15111;DHT22;7656;51.954;7.998;2023-10-08T09:10:11;14.80;99.90
15111;DHT22;7656;51.954;7.998;2023-10-08T09:14:33;15.30;99.90
15111;DHT22;7656;51.954;7.998;2023-10-08T09:18:54;15.80;99.90
15111;DHT22;7656;51.954;7.998;2023-10-08T09:23:16;15.80;99.90
15111;DHT22;7656;51.954;7.998;2023-10-08T09:27:42;15.40;99.90
15111;DHT22;7656;51.954;7.998;2023-10-08T09:36:44;19.10;99.90
15111;DHT22;7656;51.954;7.998;2023-10-08T09:41:05;19.60;99.90
15111;DHT22;7656;51.954;7.998;2023-10-08T09:45:30;18.80;99.90
15111;DHT22;7656;51.954;7.998;2023-10-08T09:50:02;19.50;99.90
15111;DHT22;7656;51.954;7.998;2023-10-08T09:54:43;19.30;99.90
15111;DHT22;7656;51.954;7.998;2023-10-08T09:59:06;18.10;99.90
15111;DHT22;7656;51.954;7.998;2023-10-08T10:03:30;18.00;99.90
15111;DHT22;7656;51.954;7.998;2023-10-08T10:07:55;17.80;99.90
15111;DHT22;7656;51.954;7.998;2023-10-08T10:12:20;18.00;99.90
15111;DHT22;7656;51.954;7.998;2023-10-08T10:17:13;17.20;99.90
15111;DHT22;7656;51.954;7.998;2023-10-08T10:21:36;17.40;99.90
15111;DHT22;7656;51.954;7.998;2023-10-08T10:25:58;17.40;99.90
15111;DHT22;7656;51.954;7.998;2023-10-08T10:30:19;17.10;99.90
15111;DHT22;7656;51.954;7.998;2023-10-08T10:34:42;17.10;99.90
15111;DHT22;7656;51.954;7.998;2023-10-08T10:39:07;16.90;99.90
15111;DHT22;7656;51.954;7.998;2023-10-08T10:43:36;16.80;99.90
15111;DHT22;7656;51.954;7.998;2023-10-08T10:48:01;16.70;99.90
15111;DHT22;7656;51.954;7.998;2023-10-08T10:52:33;17.10;99.90
15111;DHT22;7656;51.954;7.998;2023-10-08T10:57:12;16.80;99.90
15111;DHT22;7656;51.954;7.998;2023-10-08T11:01:38;16.70;99.90
15111;DHT22;7656;51.954;7.998;2023-10-08T11:06:07;16.70;99.90
15111;DHT22;7656;51.954;7.998;2023-10-08T11:10:37;16.60;99.90
15111;DHT22;7656;51.954;7.998;2023-10-08T11:15:07;16.60;99.90
15111;DHT22;7656;51.954;7.998;2023-10-08T11:19:35;16.30;99.90
15111;DHT22;7656;51.954;7.998;2023-10-08T11:23:56;16.00;99.90
15111;DHT22;7656;51.954;7.998;2023-10-08T11:28:19;16.10;99.90
15111;DHT22;7656;51.954;7.998;2023-10-08T11:32:41;16.60;99.90
15111;DHT22;7656;51.954;7.998;2023-10-08T11:37:11;16.40;99.90
15111;DHT22;7656;51.954;7.998;2023-10-08T11:41:41;16.80;99.90
15111;DHT22;7656;51.954;7.998;2023-10-08T11:46:10;16.80;99.90
15111;DHT22;7656;51.954;7.998;2023-10-08T11:50:35;16.60;99.90
15111;DHT22;7656;51.954;7.998;2023-10-08T11:54:56;16.50;99.90
15111;DHT22;7656;51.954;7.998;2023-10-08T11:59:17;16.20;99.90
15111;DHT22;7656;51.954;7.998;2023-10-08T12:03:39;16.00;99.90
15111;DHT22;7656;51.954;7.998;2023-10-08T12:08:00;16.20;99.90
15111;DHT22;7656;51.954;7.998;2023-10-08T12:12:21;16.10;99.90
15111;DHT22;7656;51.954;7.998;2023-10-08T12:16:44;16.20;99.90
15111;DHT22;7656;51.954;7.998;2023-10-08T12:21:06;16.30;99.90
15111;DHT22;7656;51.954;7.998;2023-10-08T12:25:36;17.20;99.90
15111;DHT22;7656;51.954;7.998;2023-10-08T12:29:58;17.50;99.90
15111;DHT22;7656;51.954;7.998;2023-10-08T12:34:20;17.30;99.90
15111;DHT22;7656;51.954;7.998;2023-10-08T12:38:43;17.10;99.90
15111;DHT22;7656;51.954;7.998;2023-10-08T12:43:08;17.10;99.90
15111;DHT22;7656;51.954;7.998;2023-10-08T12:47:30;16.90;99.90
15111;DHT22;7656;51.954;7.998;2023-10-08T12:51:51;17.80;99.90
15111;DHT22;7656;51.954;7.998;2023-10-08T12:56:15;19.20;99.90
15111;DHT22;7656;51.954;7.998;2023-10-08T13:00:39;18.90;99.90
15111;DHT22;7656;51.954;7.998;2023-10-08T13:05:02;20.10;99.90
15111;DHT22;7656;51.954;7.998;2023-10-08T13:09:27;20.20;99.90
15111;DHT22;7656;51.954;7.998;2023-10-08T13:13:58;20.80;99.90
15111;DHT22;7656;51.954;7.998;2023-10-08T13:18:19;19.30;99.90
15111;DHT22;7656;51.954;7.998;2023-10-08T13:22:40;19.10;99.90
15111;DHT22;7656;51.954;7.998;2023-10-08T13:27:01;20.10;99.90
15111;DHT22;7656;51.954;7.998;2023-10-08T13:31:22;18.50;99.90
15111;DHT22;7656;51.954;7.998;2023-10-08T13:35:43;18.90;99.90
15111;DHT22;7656;51.954;7.998;2023-10-08T13:40:05;18.20;99.90
15111;DHT22;7656;51.954;7.998;2023-10-08T13:44:27;18.40;99.90
15111;DHT22;7656;51.954;7.998;2023-10-08T13:48:51;18.60;99.90
15111;DHT22;7656;51.954;7.998;2023-10-08T13:53:12;18.40;99.90
15111;DHT22;7656;51.954;7.998;2023-10-08T13:57:34;19.20;99.90
15111;DHT22;7656;51.954;7.998;2023-10-08T14:01:55;19.30;99.90
15111;DHT22;7656;51.954;7.998;2023-10-08T14:06:17;19.00;99.90
15111;DHT22;7656;51.954;7.998;2023-10-08T14:10:38;18.10;99.90
15111;DHT22;7656;51.954;7.998;2023-10-08T14:14:59;17.40;99.90
15111;DHT22;7656;51.954;7.998;2023-10-08T14:19:20;16.90;99.90
15111;DHT22;7656;51.954;7.998;2023-10-08T14:23:50;16.50;99.90
15111;DHT22;7656;51.954;7.998;2023-10-08T14:28:13;16.70;99.90
15111;DHT22;7656;51.954;7.998;2023-10-08T14:32:42;17.00;99.90
15111;DHT22;7656;51.954;7.998;2023-10-08T14:37:06;17.10;99.90
15111;DHT22;7656;51.954;7.998;2023-10-08T14:41:46;17.00;99.90
15111;DHT22;7656;51.954;7.998;2023-10-08T14:46:25;16.80;99.90
15111;DHT22;7656;51.954;7.998;2023-10-08T14:50:48;17.10;99.90
15111;DHT22;7656;51.954;7.998;2023-10-08T14:55:10;17.30;99.90
15111;DHT22;7656;51.954;7.998;2023-10-08T14:59:33;17.40;99.90
15111;DHT22;7656;51.954;7.998;2023-10-08T15:03:54;16.70;99.90
15111;DHT22;7656;51.954;7.998;2023-10-08T15:08:15;16.40;99.90
15111;DHT22;7656;51.954;7.998;2023-10-08T15:12:39;16.30;99.90
15111;DHT22;7656;51.954;7.998;2023-10-08T15:17:01;16.60;99.90
15111;DHT22;7656;51.954;7.998;2023-10-08T15:21:22;16.20;99.90
15111;DHT22;7656;51.954;7.998;2023-10-08T15:25:44;16.20;99.90
15111;DHT22;7656;51.954;7.998;2023-10-08T15:30:13;16.50;99.90
15111;DHT22;7656;51.954;7.998;2023-10-08T15:34:42;16.70;99.90
15111;DHT22;7656;51.954;7.998;2023-10-08T15:39:03;16.90;99.90
15111;DHT22;7656;51.954;7.998;2023-10-08T15:43:25;16.50;99.90
15111;DHT22;7656;51.954;7.998;2023-10-08T15:47:48;16.60;99.90
15111;DHT22;7656;51.954;7.998;2023-10-08T15:52:12;16.50;99.90
15111;DHT22;7656;51.954;7.998;2023-10-08T15:56:35;16.20;99.90
15111;DHT22;7656;51.954;7.998;2023-10-08T16:00:56;16.10;99.90
15111;DHT22;7656;51.954;7.998;2023-10-08T16:05:17;15.90;99.90
15111;DHT22;7656;51.954;7.998;2023-10-08T16:09:39;16.00;99.90
15111;DHT22;7656;51.954;7.998;2023-10-08T16:14:02;16.30;99.90
15111;DHT22;7656;51.954;7.998;2023-10-08T16:18:23;16.30;99.90
15111;DHT22;7656;51.954;7.998;2023-10-08T16:22:45;16.10;99.90
15111;DHT22;7656;51.954;7.998;2023-10-08T16:27:08;15.80;99.90
15111;DHT22;7656;51.954;7.998;2023-10-08T16:31:29;15.80;99.90
15111;DHT22;7656;51.954;7.998;2023-10-08T16:35:51;15.70;99.90
15111;DHT22;7656;51.954;7.998;2023-10-08T16:40:13;15.40;99.90
15111;DHT22;7656;51.954;7.998;2023-10-08T16:44:34;15.50;99.90
15111;DHT22;7656;51.954;7.998;2023-10-08T16:48:55;15.70;99.90
15111;DHT22;7656;51.954;7.998;2023-10-08T16:53:16;15.80;99.90
15111;DHT22;7656;51.954;7.998;2023-10-08T16:57:37;15.70;99.90
15111;DHT22;7656;51.954;7.998;2023-10-08T17:01:58;15.70;99.90
15111;DHT22;7656;51.954;7.998;2023-10-08T17:06:19;15.50;99.90
15111;DHT22;7656;51.954;7.998;2023-10-08T17:10:40;15.20;99.90
15111;DHT22;7656;51.954;7.998;2023-10-08T17:15:02;15.50;99.90
15111;DHT22;7656;51.954;7.998;2023-10-08T17:19:26;15.70;99.90
15111;DHT22;7656;51.954;7.998;2023-10-08T17:23:47;15.80;99.90
15111;DHT22;7656;51.954;7.998;2023-10-08T17:28:08;15.60;99.90
15111;DHT22;7656;51.954;7.998;2023-10-08T17:32:30;15.30;99.90
15111;DHT22;7656;51.954;7.998;2023-10-08T17:36:51;15.30;99.90
15111;DHT22;7656;51.954;7.998;2023-10-08T17:41:14;15.30;99.90
15111;DHT22;7656;51.954;7.998;2023-10-08T17:45:35;15.30;99.90
15111;DHT22;7656;51.954;7.998;2023-10-08T17:49:56;15.20;99.90
15111;DHT22;7656;51.954;7.998;2023-10-08T17:54:18;15.20;99.90
15111;DHT22;7656;51.954;7.998;2023-10-08T17:58:39;15.30;99.90
15111;DHT22;7656;51.954;7.998;2023-10-08T18:03:01;15.60;99.90
15111;DHT22;7656;51.954;7.998;2023-10-08T18:07:22;15.40;99.90
15111;DHT22;7656;51.954;7.998;2023-10-08T18:11:43;14.90;99.90
15111;DHT22;7656;51.954;7.998;2023-10-08T18:16:04;15.00;99.90
15111;DHT22;7656;51.954;7.998;2023-10-08T18:20:25;15.00;99.90
15111;DHT22;7656;51.954;7.998;2023-10-08T18:24:56;14.90;99.90
15111;DHT22;7656;51.954;7.998;2023-10-08T18:29:17;14.90;99.90
15111;DHT22;7656;51.954;7.998;2023-10-08T18:33:40;15.10;99.90
15111;DHT22;7656;51.954;7.998;2023-10-08T18:38:05;14.60;99.90
15111;DHT22;7656;51.954;7.998;2023-10-08T18:42:26;14.40;99.90
15111;DHT22;7656;51.954;7.998;2023-10-08T18:46:49;14.60;99.90
15111;DHT22;7656;51.954;7.998;2023-10-08T18:51:11;14.40;99.90
15111;DHT22;7656;51.954;7.998;2023-10-08T18:55:33;14.40;99.90
15111;DHT22;7656;51.954;7.998;2023-10-08T18:59:54;14.40;99.90
15111;DHT22;7656;51.954;7.998;2023-10-08T19:04:15;14.40;99.90
15111;DHT22;7656;51.954;7.998;2023-10-08T19:08:38;14.30;99.90
15111;DHT22;7656;51.954;7.998;2023-10-08T19:12:59;14.40;99.90
15111;DHT22;7656;51.954;7.998;2023-10-08T19:17:21;14.50;99.90
15111;DHT22;7656;51.954;7.998;2023-10-08T19:21:43;14.50;99.90
15111;DHT22;7656;51.954;7.998;2023-10-08T19:26:04;14.40;99.90
15111;DHT22;7656;51.954;7.998;2023-10-08T19:30:32;14.30;99.90
15111;DHT22;7656;51.954;7.998;2023-10-08T19:34:53;14.40;99.90
15111;DHT22;7656;51.954;7.998;2023-10-08T19:39:15;14.30;99.90
15111;DHT22;7656;51.954;7.998;2023-10-08T19:43:36;14.10;99.90
15111;DHT22;7656;51.954;7.998;2023-10-08T19:47:58;14.20;99.90
15111;DHT22;7656;51.954;7.998;2023-10-08T19:52:19;14.50;99.90
15111;DHT22;7656;51.954;7.998;2023-10-08T19:56:41;14.50;99.90
15111;DHT22;7656;51.954;7.998;2023-10-08T20:01:02;14.60;99.90
15111;DHT22;7656;51.954;7.998;2023-10-08T20:05:24;14.50;99.90
15111;DHT22;7656;51.954;7.998;2023-10-08T20:09:45;14.70;99.90
15111;DHT22;7656;51.954;7.998;2023-10-08T20:14:07;14.80;99.90
15111;DHT22;7656;51.954;7.998;2023-10-08T20:18:28;15.00;99.90
15111;DHT22;7656;51.954;7.998;2023-10-08T20:22:52;14.90;99.90
15111;DHT22;7656;51.954;7.998;2023-10-08T20:27:15;15.00;99.90
15111;DHT22;7656;51.954;7.998;2023-10-08T20:31:36;15.00;99.90
15111;DHT22;7656;51.954;7.998;2023-10-08T20:35:57;14.80;99.90
15111;DHT22;7656;51.954;7.998;2023-10-08T20:40:18;14.60;99.90
15111;DHT22;7656;51.954;7.998;2023-10-08T20:44:46;14.30;99.90
15111;DHT22;7656;51.954;7.998;2023-10-08T20:49:07;14.30;99.90
15111;DHT22;7656;51.954;7.998;2023-10-08T20:53:28;14.30;99.90
15111;DHT22;7656;51.954;7.998;2023-10-08T20:57:49;14.00;99.90
15111;DHT22;7656;51.954;7.998;2023-10-08T21:02:11;14.20;99.90
15111;DHT22;7656;51.954;7.998;2023-10-08T21:06:32;14.10;99.90
15111;DHT22;7656;51.954;7.998;2023-10-08T21:10:53;13.90;99.90
15111;DHT22;7656;51.954;7.998;2023-10-08T21:15:15;13.90;99.90
15111;DHT22;7656;51.954;7.998;2023-10-08T21:19:40;14.00;99.90
15111;DHT22;7656;51.954;7.998;2023-10-08T21:24:01;14.20;99.90
15111;DHT22;7656;51.954;7.998;2023-10-08T21:28:22;14.20;99.90
15111;DHT22;7656;51.954;7.998;2023-10-08T21:32:44;14.30;99.90
15111;DHT22;7656;51.954;7.998;2023-10-08T21:37:08;14.20;99.90
15111;DHT22;7656;51.954;7.998;2023-10-08T21:41:31;14.20;99.90
15111;DHT22;7656;51.954;7.998;2023-10-08T21:45:53;14.10;99.90
15111;DHT22;7656;51.954;7.998;2023-10-08T21:50:16;13.90;99.90
15111;DHT22;7656;51.954;7.998;2023-10-08T21:54:37;13.40;99.90
15111;DHT22;7656;51.954;7.998;2023-10-08T21:58:58;13.60;99.90
15111;DHT22;7656;51.954;7.998;2023-10-08T22:03:20;13.70;99.90
15111;DHT22;7656;51.954;7.998;2023-10-08T22:07:41;14.00;99.90
15111;DHT22;7656;51.954;7.998;2023-10-08T22:12:02;14.10;99.90
15111;DHT22;7656;51.954;7.998;2023-10-08T22:16:27;14.20;99.90
15111;DHT22;7656;51.954;7.998;2023-10-08T22:20:53;14.00;99.90
15111;DHT22;7656;51.954;7.998;2023-10-08T22:25:14;14.30;99.90
15111;DHT22;7656;51.954;7.998;2023-10-08T22:29:35;14.20;99.90
15111;DHT22;7656;51.954;7.998;2023-10-08T22:33:57;14.20;99.90
15111;DHT22;7656;51.954;7.998;2023-10-08T22:38:25;14.10;99.90
15111;DHT22;7656;51.954;7.998;2023-10-08T22:42:49;14.20;99.90
15111;DHT22;7656;51.954;7.998;2023-10-08T22:47:10;14.10;99.90
15111;DHT22;7656;51.954;7.998;2023-10-08T22:51:31;14.20;99.90
15111;DHT22;7656;51.954;7.998;2023-10-08T22:56:00;14.20;99.90
15111;DHT22;7656;51.954;7.998;2023-10-08T23:00:21;14.10;99.90
15111;DHT22;7656;51.954;7.998;2023-10-08T23:04:47;13.90;99.90
15111;DHT22;7656;51.954;7.998;2023-10-08T23:09:09;13.70;99.90
15111;DHT22;7656;51.954;7.998;2023-10-08T23:13:35;13.70;99.90
15111;DHT22;7656;51.954;7.998;2023-10-08T23:17:56;13.70;99.90
15111;DHT22;7656;51.954;7.998;2023-10-08T23:22:17;13.60;99.90
15111;DHT22;7656;51.954;7.998;2023-10-08T23:26:39;13.60;99.90
15111;DHT22;7656;51.954;7.998;2023-10-08T23:31:05;13.70;99.90
15111;DHT22;7656;51.954;7.998;2023-10-08T23:35:29;13.60;99.90
15111;DHT22;7656;51.954;7.998;2023-10-08T23:39:51;13.50;99.90
15111;DHT22;7656;51.954;7.998;2023-10-08T23:44:19;13.40;99.90
15111;DHT22;7656;51.954;7.998;2023-10-08T23:48:47;13.40;99.90
15111;DHT22;7656;51.954;7.998;2023-10-08T23:53:14;13.40;99.90
15111;DHT22;7656;51.954;7.998;2023-10-08T23:57:51;13.50;99.90
